createdAt,value
2019-03-11T00:03:49.289Z,6.80
2019-03-11T00:06:31.129Z,6.70
2019-03-11T00:09:13.249Z,6.70
2019-03-11T00:11:55.359Z,6.70
2019-03-11T00:14:37.576Z,6.70
2019-03-11T00:17:19.919Z,6.80
2019-03-11T00:20:02.457Z,6.70
2019-03-11T00:22:44.132Z,6.70
2019-03-11T00:25:26.559Z,6.70
2019-03-11T00:28:08.224Z,6.70
2019-03-11T00:30:50.250Z,6.70
2019-03-11T00:33:32.489Z,6.70
2019-03-11T00:36:14.960Z,6.80
2019-03-11T00:38:56.997Z,6.70
2019-03-11T00:41:39.433Z,6.70
2019-03-11T00:44:21.205Z,6.70
2019-03-11T00:47:03.035Z,6.60
2019-03-11T00:49:45.237Z,6.60
2019-03-11T00:52:27.404Z,6.70
2019-03-11T00:55:09.592Z,6.70
2019-03-11T00:57:51.489Z,6.70
2019-03-11T01:00:33.619Z,6.60
2019-03-11T01:03:16.471Z,6.50
2019-03-11T01:05:58.557Z,6.50
2019-03-11T01:08:40.943Z,6.50
2019-03-11T01:11:22.872Z,6.40
2019-03-11T01:14:05.014Z,6.40
2019-03-11T01:16:46.846Z,6.40
2019-03-11T01:19:28.940Z,6.40
2019-03-11T01:22:11.162Z,6.40
2019-03-11T01:24:53.011Z,6.40
2019-03-11T01:27:36.247Z,6.30
2019-03-11T01:30:19.506Z,6.30
2019-03-11T01:33:01.696Z,6.20
2019-03-11T01:35:43.876Z,6.20
2019-03-11T01:38:25.940Z,6.20
2019-03-11T01:41:08.339Z,6.20
2019-03-11T01:43:50.710Z,6.20
2019-03-11T01:46:33.025Z,6.20
2019-03-11T01:49:15.189Z,6.20
2019-03-11T01:51:57.069Z,6.20
2019-03-11T01:54:39.579Z,6.20
2019-03-11T01:57:22.157Z,6.20
2019-03-11T02:00:04.342Z,6.20
2019-03-11T02:02:46.386Z,6.30
2019-03-11T02:05:28.498Z,6.20
2019-03-11T02:08:10.732Z,6.20
2019-03-11T02:10:52.842Z,6.20
2019-03-11T02:13:34.605Z,6.10
2019-03-11T02:16:16.616Z,6.20
2019-03-11T02:18:58.743Z,6.10
2019-03-11T02:21:41.361Z,6.10
2019-03-11T02:24:23.335Z,6.10
2019-03-11T02:27:05.677Z,6.10
2019-03-11T02:29:47.855Z,6.00
2019-03-11T02:32:30.035Z,6.00
2019-03-11T02:35:12.118Z,6.00
2019-03-11T02:37:54.407Z,6.00
2019-03-11T02:40:36.677Z,6.00
2019-03-11T02:43:19.026Z,5.90
2019-03-11T02:46:01.278Z,5.90
2019-03-11T02:48:43.467Z,5.90
2019-03-11T02:51:25.301Z,5.80
2019-03-11T02:54:07.623Z,5.80
2019-03-11T02:56:49.705Z,5.80
2019-03-11T02:59:32.575Z,5.80
2019-03-11T03:02:36.993Z,5.80
2019-03-11T03:08:55.969Z,5.70
2019-03-11T03:11:38.037Z,5.70
2019-03-11T03:14:20.407Z,5.70
2019-03-11T03:17:02.898Z,5.70
2019-03-11T03:19:45.119Z,5.70
2019-03-11T03:22:27.682Z,5.70
2019-03-11T03:25:09.622Z,5.60
2019-03-11T03:27:52.079Z,5.70
2019-03-11T03:30:34.030Z,5.70
2019-03-11T03:33:16.065Z,5.80
2019-03-11T03:35:58.488Z,5.80
2019-03-11T03:38:40.434Z,5.80
2019-03-11T03:41:22.782Z,5.80
2019-03-11T03:44:04.717Z,5.90
2019-03-11T03:46:47.339Z,5.90
2019-03-11T03:49:29.997Z,5.80
2019-03-11T03:52:12.211Z,5.90
2019-03-11T03:54:54.256Z,6.00
2019-03-11T03:57:36.861Z,6.00
2019-03-11T04:00:18.966Z,6.00
2019-03-11T04:03:01.061Z,6.00
2019-03-11T04:05:43.244Z,5.90
2019-03-11T04:08:25.495Z,5.90
2019-03-11T04:11:07.959Z,5.90
2019-03-11T04:13:50.067Z,5.80
2019-03-11T04:16:31.993Z,5.80
2019-03-11T04:19:13.937Z,5.80
2019-03-11T04:21:56.224Z,5.80
2019-03-11T04:24:38.245Z,5.80
2019-03-11T04:27:20.052Z,5.70
2019-03-11T04:30:01.870Z,5.70
2019-03-11T04:32:44.355Z,5.70
2019-03-11T04:35:26.405Z,5.70
2019-03-11T04:38:08.638Z,5.70
2019-03-11T04:40:50.802Z,5.70
2019-03-11T04:43:32.640Z,5.70
2019-03-11T04:46:15.258Z,5.70
2019-03-11T04:48:57.334Z,5.80
2019-03-11T04:51:39.719Z,5.80
2019-03-11T04:54:21.923Z,5.80
2019-03-11T04:57:04.182Z,5.80
2019-03-11T04:59:46.017Z,5.90
2019-03-11T05:02:28.464Z,5.90
2019-03-11T05:05:10.442Z,5.90
2019-03-11T05:07:52.171Z,5.80
2019-03-11T05:10:34.487Z,5.80
2019-03-11T05:13:16.402Z,5.90
2019-03-11T05:15:58.643Z,6.00
2019-03-11T05:18:41.142Z,5.90
2019-03-11T05:21:23.409Z,5.90
2019-03-11T05:24:05.389Z,5.90
2019-03-11T05:26:47.464Z,5.80
2019-03-11T05:29:29.548Z,5.80
2019-03-11T05:32:11.634Z,6.00
2019-03-11T05:34:53.880Z,6.00
2019-03-11T05:37:35.799Z,6.00
2019-03-11T05:40:17.474Z,6.00
2019-03-11T05:42:59.716Z,6.00
2019-03-11T05:45:41.772Z,6.00
2019-03-11T05:48:23.776Z,6.10
2019-03-11T05:51:06.249Z,6.10
2019-03-11T05:53:48.808Z,6.10
2019-03-11T05:56:30.855Z,6.20
2019-03-11T05:59:12.673Z,6.20
2019-03-11T06:01:54.743Z,6.20
2019-03-11T06:04:36.813Z,6.10
2019-03-11T06:07:19.774Z,5.90
2019-03-11T06:10:01.759Z,5.70
2019-03-11T06:12:43.835Z,5.60
2019-03-11T06:15:25.565Z,5.40
2019-03-11T06:18:07.499Z,5.20
2019-03-11T06:21:08.523Z,5.00
2019-03-11T06:23:50.321Z,4.90
2019-03-11T06:26:32.654Z,4.90
2019-03-11T06:29:14.892Z,4.80
2019-03-11T06:31:56.922Z,4.90
2019-03-11T06:34:39.220Z,5.00
2019-03-11T06:37:21.090Z,4.90
2019-03-11T06:40:03.452Z,4.80
2019-03-11T06:42:45.511Z,5.00
2019-03-11T06:45:27.938Z,4.90
2019-03-11T06:48:10.278Z,4.80
2019-03-11T06:50:52.280Z,4.80
2019-03-11T06:53:34.357Z,4.70
2019-03-11T06:56:16.352Z,4.70
2019-03-11T06:58:58.610Z,4.80
2019-03-11T07:01:41.003Z,4.70
2019-03-11T07:04:23.368Z,4.70
2019-03-11T07:07:05.536Z,4.70
2019-03-11T07:09:47.575Z,4.70
2019-03-11T07:12:29.991Z,4.70
2019-03-11T07:15:11.841Z,4.70
2019-03-11T07:17:54.229Z,4.70
2019-03-11T07:20:36.657Z,4.80
2019-03-11T07:23:19.052Z,4.80
2019-03-11T07:26:00.742Z,4.80
2019-03-11T07:28:42.975Z,4.70
2019-03-11T07:31:24.857Z,4.70
2019-03-11T07:34:07.176Z,4.70
2019-03-11T07:36:49.077Z,4.70
2019-03-11T07:39:32.648Z,4.80
2019-03-11T07:42:14.696Z,4.80
2019-03-11T07:44:56.991Z,4.90
2019-03-11T07:47:39.109Z,4.90
2019-03-11T07:50:21.244Z,4.90
2019-03-11T07:53:03.101Z,5.00
2019-03-11T07:55:45.267Z,5.00
2019-03-11T07:58:27.900Z,5.00
2019-03-11T08:01:09.982Z,5.00
2019-03-11T08:03:52.057Z,4.90
2019-03-11T08:06:33.791Z,5.00
2019-03-11T08:09:15.759Z,5.10
2019-03-11T08:11:57.719Z,5.20
2019-03-11T08:14:39.647Z,5.20
2019-03-11T08:17:21.531Z,5.20
2019-03-11T08:20:03.427Z,5.30
2019-03-11T08:22:45.646Z,5.40
2019-03-11T08:25:27.430Z,5.50
2019-03-11T08:28:09.652Z,5.50
2019-03-11T08:30:51.662Z,5.50
2019-03-11T08:33:33.637Z,5.50
2019-03-11T08:36:15.813Z,5.50
2019-03-11T08:38:57.956Z,5.50
2019-03-11T08:41:39.912Z,5.60
2019-03-11T08:44:22.071Z,5.70
2019-03-11T08:47:03.870Z,5.70
2019-03-11T08:49:46.007Z,5.70
2019-03-11T08:52:27.847Z,5.70
2019-03-11T08:55:10.244Z,5.80
2019-03-11T08:57:52.154Z,5.80
2019-03-11T09:00:34.327Z,5.90
2019-03-11T09:03:16.102Z,5.80
2019-03-11T09:05:58.240Z,5.80
2019-03-11T09:08:40.589Z,5.80
2019-03-11T09:11:22.667Z,5.80
2019-03-11T09:14:04.769Z,5.80
2019-03-11T09:16:46.912Z,5.80
2019-03-11T09:19:29.490Z,5.80
2019-03-11T09:22:11.517Z,5.80
2019-03-11T09:24:53.640Z,5.90
2019-03-11T09:27:35.648Z,6.00
2019-03-11T09:30:17.891Z,6.10
2019-03-11T09:32:59.740Z,5.90
2019-03-11T09:35:42.234Z,5.80
2019-03-11T09:38:24.869Z,5.80
2019-03-11T09:41:07.041Z,5.80
2019-03-11T09:43:48.908Z,5.80
2019-03-11T09:46:30.892Z,5.80
2019-03-11T09:49:12.957Z,5.90
2019-03-11T09:51:54.844Z,5.90
2019-03-11T09:54:36.662Z,6.00
2019-03-11T09:57:18.749Z,6.00
2019-03-11T10:00:00.495Z,6.10
2019-03-11T10:02:51.716Z,6.10
2019-03-11T10:05:26.687Z,6.10
2019-03-11T10:08:10.798Z,6.20
2019-03-11T10:10:52.618Z,6.20
2019-03-11T10:13:34.992Z,6.30
2019-03-11T10:16:17.473Z,6.30
2019-03-11T10:19:00.144Z,6.30
2019-03-11T10:21:42.627Z,6.40
2019-03-11T10:24:24.824Z,6.50
2019-03-11T10:27:07.218Z,6.70
2019-03-11T10:29:49.633Z,6.80
2019-03-11T10:32:31.693Z,6.80
2019-03-11T10:35:30.849Z,6.70
2019-03-11T10:37:57.076Z,6.70
2019-03-11T10:40:39.131Z,6.60
2019-03-11T10:43:21.080Z,6.70
2019-03-11T10:46:03.047Z,6.70
2019-03-11T10:48:45.205Z,6.70
2019-03-11T10:51:27.524Z,6.80
2019-03-11T10:54:11.666Z,6.80
2019-03-11T10:56:53.942Z,6.90
2019-03-11T10:59:35.622Z,6.90
2019-03-11T11:02:19.719Z,7.00
2019-03-11T11:05:01.761Z,6.90
2019-03-11T11:07:43.917Z,6.90
2019-03-11T11:10:25.801Z,6.80
2019-03-11T11:13:07.883Z,6.90
2019-03-11T11:15:50.877Z,6.80
2019-03-11T11:18:33.206Z,6.80
2019-03-11T11:21:15.363Z,6.80
2019-03-11T11:23:57.142Z,6.80
2019-03-11T11:26:39.670Z,6.80
2019-03-11T11:29:21.935Z,6.80
2019-03-11T11:32:03.771Z,6.80
2019-03-11T11:34:46.015Z,6.90
2019-03-11T11:37:28.059Z,6.90
2019-03-11T11:40:10.207Z,6.90
2019-03-11T11:42:52.405Z,6.90
2019-03-11T11:45:34.699Z,6.90
2019-03-11T11:48:17.383Z,6.90
2019-03-11T11:50:59.377Z,6.90
2019-03-11T11:53:41.391Z,6.90
2019-03-11T11:56:23.372Z,6.80
2019-03-11T11:59:05.307Z,6.80
2019-03-11T12:01:47.141Z,6.80
2019-03-11T12:04:29.233Z,6.80
2019-03-11T12:07:11.239Z,6.80
2019-03-11T12:09:53.385Z,6.80
2019-03-11T12:12:35.884Z,6.90
2019-03-11T12:15:18.088Z,6.90
2019-03-11T12:18:00.264Z,6.90
2019-03-11T12:20:42.151Z,6.90
2019-03-11T12:23:26.145Z,6.90
2019-03-11T12:26:08.714Z,6.90
2019-03-11T12:28:50.945Z,6.90
2019-03-11T12:31:32.938Z,6.90
2019-03-11T12:34:14.838Z,6.90
2019-03-11T12:36:56.937Z,6.90
2019-03-11T12:39:38.780Z,6.90
2019-03-11T12:42:21.434Z,6.90
2019-03-11T12:45:03.925Z,6.90
2019-03-11T12:47:45.846Z,6.90
2019-03-11T12:50:27.501Z,6.90
2019-03-11T12:53:10.111Z,6.90
2019-03-11T12:55:52.110Z,6.90
2019-03-11T12:58:41.551Z,6.90
2019-03-11T13:01:17.645Z,6.80
2019-03-11T13:03:59.866Z,6.90
2019-03-11T13:06:42.019Z,6.90
2019-03-11T13:09:24.539Z,6.90
2019-03-11T13:12:06.789Z,6.90
2019-03-11T13:14:48.914Z,6.90
2019-03-11T13:17:30.962Z,6.80
2019-03-11T13:20:12.680Z,6.80
2019-03-11T13:22:55.236Z,6.70
2019-03-11T13:25:37.479Z,6.70
2019-03-11T13:28:19.771Z,6.80
2019-03-11T13:31:02.386Z,6.80
2019-03-11T13:33:44.585Z,6.90
2019-03-11T13:36:26.476Z,6.90
2019-03-11T13:39:08.752Z,6.90
2019-03-11T13:41:53.071Z,7.00
2019-03-11T13:44:35.205Z,7.10
2019-03-11T13:47:17.134Z,7.10
2019-03-11T13:50:01.429Z,7.00
2019-03-11T13:52:43.288Z,7.00
2019-03-11T13:55:25.395Z,7.00
2019-03-11T13:58:07.497Z,7.00
2019-03-11T14:00:56.779Z,6.90
2019-03-11T14:03:33.290Z,6.90
2019-03-11T14:06:15.645Z,6.90
2019-03-11T14:08:58.275Z,7.00
2019-03-11T14:11:40.357Z,7.00
2019-03-11T14:14:22.814Z,7.00
2019-03-11T14:17:05.055Z,7.00
2019-03-11T14:19:47.019Z,7.00
2019-03-11T14:22:29.309Z,7.00
2019-03-11T14:25:11.915Z,7.20
2019-03-11T14:27:54.475Z,7.20
2019-03-11T14:30:37.075Z,7.30
2019-03-11T14:33:19.283Z,7.30
2019-03-11T14:36:01.359Z,7.30
2019-03-11T14:38:43.243Z,7.30
2019-03-11T14:41:25.663Z,7.30
2019-03-11T14:44:08.605Z,7.30
2019-03-11T14:46:50.556Z,7.20
2019-03-11T14:49:33.806Z,7.20
2019-03-11T14:52:16.225Z,7.20
2019-03-11T14:54:58.770Z,7.10
2019-03-11T14:57:41.072Z,7.00
2019-03-11T15:00:23.393Z,6.80
2019-03-11T15:03:05.795Z,6.70
2019-03-11T15:05:48.019Z,6.60
2019-03-11T15:08:30.742Z,6.50
2019-03-11T15:11:12.691Z,6.60
2019-03-11T15:13:55.245Z,6.60
2019-03-11T15:16:37.532Z,6.60
2019-03-11T15:19:21.595Z,6.80
2019-03-11T15:22:04.342Z,6.80
2019-03-11T15:24:46.464Z,6.80
2019-03-11T15:27:28.447Z,6.80
2019-03-11T15:30:10.364Z,6.80
2019-03-11T15:32:52.797Z,6.80
2019-03-11T15:35:35.281Z,6.80
2019-03-11T15:38:17.222Z,6.90
2019-03-11T15:40:59.409Z,6.90
2019-03-11T15:43:41.743Z,6.90
2019-03-11T15:46:23.782Z,6.80
2019-03-11T15:49:05.916Z,6.80
2019-03-11T15:51:48.031Z,6.70
2019-03-11T15:54:30.511Z,6.60
2019-03-11T15:57:12.985Z,6.60
2019-03-11T15:59:54.920Z,6.60
2019-03-11T16:02:37.616Z,6.50
2019-03-11T16:05:19.798Z,6.30
2019-03-11T16:08:02.032Z,6.10
2019-03-11T16:10:44.082Z,6.00
2019-03-11T16:13:27.095Z,5.60
2019-03-11T16:16:09.741Z,5.50
2019-03-11T16:18:51.720Z,5.40
2019-03-11T16:21:34.110Z,5.50
2019-03-11T16:24:16.317Z,5.50
2019-03-11T16:26:58.626Z,5.40
2019-03-11T16:29:41.072Z,5.50
2019-03-11T16:32:23.412Z,5.50
2019-03-11T16:35:06.193Z,5.50
2019-03-11T16:37:48.838Z,5.50
2019-03-11T16:40:31.289Z,5.50
2019-03-11T16:43:13.851Z,5.50
2019-03-11T16:45:56.412Z,5.50
2019-03-11T16:48:39.045Z,5.60
2019-03-11T16:51:21.214Z,5.70
2019-03-11T16:54:03.535Z,5.70
2019-03-11T16:56:45.787Z,5.80
2019-03-11T16:59:27.964Z,5.70
2019-03-11T17:02:10.735Z,5.70
2019-03-11T17:04:52.889Z,5.80
2019-03-11T17:07:34.677Z,5.80
2019-03-11T17:10:16.644Z,5.90
2019-03-11T17:12:58.518Z,5.90
2019-03-11T17:15:40.475Z,5.90
2019-03-11T17:18:23.137Z,5.90
2019-03-11T17:21:05.618Z,5.90
2019-03-11T17:23:47.621Z,5.90
2019-03-11T17:26:29.765Z,6.00
2019-03-11T17:29:11.811Z,5.90
2019-03-11T17:31:53.990Z,5.70
2019-03-11T17:34:36.273Z,5.50
2019-03-11T17:37:18.347Z,5.50
2019-03-11T17:40:00.803Z,5.40
2019-03-11T17:42:42.658Z,5.30
2019-03-11T17:45:24.791Z,5.30
2019-03-11T17:48:07.778Z,5.30
2019-03-11T17:50:49.871Z,5.30
2019-03-11T17:53:32.695Z,5.20
2019-03-11T17:56:14.498Z,5.20
2019-03-11T18:01:36.644Z,5.20
2019-03-11T18:04:18.785Z,5.10
2019-03-11T18:07:00.807Z,5.00
2019-03-11T18:09:43.873Z,4.90
2019-03-11T18:12:25.761Z,4.90
2019-03-11T18:15:07.949Z,5.00
2019-03-11T18:17:49.578Z,5.00
2019-03-11T18:20:31.716Z,5.00
2019-03-11T18:23:13.933Z,5.10
2019-03-11T18:25:56.028Z,5.00
2019-03-11T18:28:37.828Z,5.00
2019-03-11T18:31:20.042Z,5.10
2019-03-11T18:34:02.568Z,5.10
2019-03-11T18:36:44.587Z,5.10
2019-03-11T18:39:26.384Z,5.10
2019-03-11T18:42:08.413Z,5.10
2019-03-11T18:44:50.795Z,5.10
2019-03-11T18:47:33.688Z,5.10
2019-03-11T18:50:17.103Z,5.00
2019-03-11T18:52:59.086Z,5.10
2019-03-11T18:55:41.338Z,5.10
2019-03-11T18:58:22.048Z,5.00
2019-03-11T19:01:11.614Z,5.10
2019-03-11T19:07:16.904Z,5.20
2019-03-11T19:10:06.622Z,5.20
2019-03-11T19:16:05.095Z,5.20
2019-03-11T19:22:03.263Z,5.20
2019-03-11T19:24:53.140Z,5.10
2019-03-11T19:27:44.375Z,5.00
2019-03-11T19:30:33.866Z,5.00
2019-03-11T19:33:23.650Z,5.00
2019-03-11T19:39:28.881Z,5.00
2019-03-11T19:42:30.356Z,5.00
2019-03-11T19:45:12.854Z,5.00
2019-03-11T19:47:54.730Z,4.90
2019-03-11T19:50:36.635Z,4.90
2019-03-11T19:53:18.364Z,4.90
2019-03-11T19:56:00.807Z,5.00
2019-03-11T19:58:42.907Z,4.90
2019-03-11T20:01:24.776Z,4.90
2019-03-11T20:04:07.004Z,5.00
2019-03-11T20:06:49.378Z,5.00
2019-03-11T20:09:34.277Z,5.00
2019-03-11T20:12:15.122Z,5.10
2019-03-11T20:14:57.519Z,5.00
2019-03-11T20:17:39.971Z,5.00
2019-03-11T20:20:22.189Z,5.00
2019-03-11T20:23:03.951Z,5.00
2019-03-11T20:25:46.027Z,4.90
2019-03-11T20:28:27.881Z,4.90
2019-03-11T20:31:10.240Z,5.00
2019-03-11T20:33:52.564Z,5.00
2019-03-11T20:36:35.514Z,4.90
2019-03-11T20:39:17.729Z,4.90
2019-03-11T20:41:59.897Z,4.90
2019-03-11T20:44:41.837Z,4.90
2019-03-11T20:47:24.137Z,4.80
2019-03-11T20:50:06.234Z,4.80
2019-03-11T20:52:48.728Z,4.80
2019-03-11T20:55:30.535Z,4.90
2019-03-11T20:58:12.999Z,4.90
2019-03-11T21:00:55.431Z,4.90
2019-03-11T21:03:37.223Z,4.90
2019-03-11T21:06:19.238Z,4.90
2019-03-11T21:09:01.086Z,4.90
2019-03-11T21:11:42.931Z,4.90
2019-03-11T21:14:25.523Z,4.80
2019-03-11T21:17:07.763Z,4.80
2019-03-11T21:19:49.653Z,4.80
2019-03-11T21:22:31.656Z,4.80
2019-03-11T21:25:13.544Z,4.80
2019-03-11T21:27:56.170Z,4.90
2019-03-11T21:30:38.793Z,4.80
2019-03-11T21:33:21.190Z,4.80
2019-03-11T21:36:01.775Z,4.80
2019-03-11T21:45:33.447Z,4.80
2019-03-11T21:48:32.917Z,4.90
2019-03-11T21:51:22.776Z,4.90
2019-03-11T21:54:12.393Z,4.80
2019-03-11T22:06:58.948Z,4.70
2019-03-11T22:09:40.757Z,4.70
2019-03-11T22:12:22.630Z,4.70
2019-03-11T22:15:04.304Z,4.70
2019-03-11T22:17:46.526Z,4.70
2019-03-11T22:20:29.206Z,4.70
2019-03-11T22:23:11.597Z,4.70
2019-03-11T22:25:53.634Z,4.70
2019-03-11T22:28:35.699Z,4.70
2019-03-11T22:31:18.354Z,4.70
2019-03-11T22:34:00.245Z,4.70
2019-03-11T22:36:42.030Z,4.70
2019-03-11T22:39:24.147Z,4.60
2019-03-11T22:42:06.470Z,4.70
2019-03-11T22:44:48.289Z,4.60
2019-03-11T22:47:30.215Z,4.60
2019-03-11T22:50:12.710Z,4.50
2019-03-11T22:52:54.677Z,4.60
2019-03-11T22:55:39.129Z,4.70
2019-03-11T22:58:20.925Z,4.70
2019-03-11T23:01:04.090Z,4.70
2019-03-11T23:03:50.343Z,4.70
2019-03-11T23:06:30.648Z,4.80
2019-03-11T23:09:13.096Z,4.70
2019-03-11T23:11:55.234Z,4.70
2019-03-11T23:14:37.266Z,4.70
2019-03-11T23:17:19.586Z,4.80
2019-03-11T23:20:01.531Z,4.80
2019-03-11T23:22:43.559Z,4.80
2019-03-11T23:25:26.132Z,4.80
2019-03-11T23:28:08.135Z,4.80
2019-03-11T23:30:50.360Z,4.80
2019-03-11T23:33:32.942Z,4.90
2019-03-11T23:36:15.070Z,4.80
2019-03-11T23:38:57.372Z,4.80
2019-03-11T23:41:39.994Z,4.90
2019-03-11T23:44:22.982Z,4.90
2019-03-11T23:47:05.439Z,4.90
2019-03-11T23:49:47.803Z,4.90
2019-03-11T23:52:30.280Z,4.90
2019-03-11T23:55:12.523Z,5.00
2019-03-11T23:57:54.989Z,5.00
